createdAt,value
2022-07-30T00:01:46.107Z,2.53
2022-07-30T00:04:13.749Z,2.50
2022-07-30T00:06:41.323Z,2.80
2022-07-30T00:09:08.913Z,2.97
2022-07-30T00:11:36.726Z,2.60
2022-07-30T00:14:04.418Z,2.45
2022-07-30T00:16:31.968Z,2.22
2022-07-30T00:19:00.080Z,2.58
2022-07-30T00:21:34.640Z,2.72
2022-07-30T00:24:08.854Z,2.60
2022-07-30T00:26:36.475Z,2.70
2022-07-30T00:29:05.495Z,2.60
2022-07-30T00:31:33.541Z,2.88
2022-07-30T00:34:01.201Z,2.22
2022-07-30T00:36:29.089Z,2.38
2022-07-30T00:38:56.920Z,2.58
2022-07-30T00:41:25.603Z,2.15
2022-07-30T00:43:53.501Z,2.40
2022-07-30T00:46:21.708Z,2.55
2022-07-30T00:48:49.947Z,2.20
2022-07-30T00:51:17.812Z,2.83
2022-07-30T00:53:45.583Z,2.30
2022-07-30T00:56:13.180Z,2.28
2022-07-30T00:58:40.598Z,2.22
2022-07-30T01:01:08.436Z,2.53
2022-07-30T01:03:38.238Z,2.42
2022-07-30T01:06:05.826Z,2.75
2022-07-30T01:08:43.508Z,3.00
2022-07-30T01:11:12.132Z,2.53
2022-07-30T01:13:44.794Z,2.90
2022-07-30T01:16:12.484Z,2.53
2022-07-30T01:19:01.038Z,2.80
2022-07-30T01:21:39.314Z,2.60
2022-07-30T01:24:35.674Z,2.55
2022-07-30T01:27:03.654Z,2.53
2022-07-30T01:29:33.964Z,2.70
2022-07-30T01:32:06.427Z,2.53
2022-07-30T01:34:36.563Z,2.92
2022-07-30T01:37:08.724Z,2.85
2022-07-30T01:39:37.813Z,2.67
2022-07-30T01:42:09.380Z,2.92
2022-07-30T01:44:39.712Z,2.90
2022-07-30T01:47:09.163Z,3.07
2022-07-30T01:49:38.586Z,2.60
2022-07-30T01:52:07.837Z,2.60
2022-07-30T01:54:37.496Z,2.70
2022-07-30T01:57:06.503Z,2.65
2022-07-30T01:59:36.163Z,2.80
2022-07-30T02:02:03.973Z,2.70
2022-07-30T02:04:36.588Z,2.78
2022-07-30T02:07:37.418Z,2.80
2022-07-30T02:10:21.559Z,2.97
2022-07-30T02:12:54.800Z,2.90
2022-07-30T02:15:31.937Z,2.90
2022-07-30T02:18:32.612Z,3.10
2022-07-30T02:21:11.531Z,3.00
2022-07-30T02:23:45.852Z,2.63
2022-07-30T02:26:18.811Z,2.67
2022-07-30T02:28:51.879Z,2.53
2022-07-30T02:31:25.056Z,2.53
2022-07-30T02:34:00.747Z,2.88
2022-07-30T02:36:31.590Z,2.97
2022-07-30T02:39:00.964Z,2.58
2022-07-30T02:41:31.824Z,2.70
2022-07-30T02:44:00.785Z,2.50
2022-07-30T02:46:32.564Z,2.65
2022-07-30T02:49:21.022Z,2.85
2022-07-30T02:51:51.441Z,2.93
2022-07-30T02:54:21.724Z,2.90
2022-07-30T02:56:52.008Z,3.10
2022-07-30T03:01:50.823Z,2.75
2022-07-30T03:04:22.129Z,2.88
2022-07-30T03:06:50.399Z,3.05
2022-07-30T03:09:19.158Z,2.92
2022-07-30T03:11:52.353Z,3.10
2022-07-30T03:14:20.952Z,3.00
2022-07-30T03:16:59.159Z,3.25
2022-07-30T03:19:32.449Z,3.38
2022-07-30T03:22:03.889Z,3.40
2022-07-30T03:24:32.956Z,3.60
2022-07-30T03:27:04.057Z,3.50
2022-07-30T03:29:33.060Z,3.35
2022-07-30T03:32:01.575Z,3.25
2022-07-30T03:34:33.121Z,4.18
2022-07-30T03:37:05.847Z,3.45
2022-07-30T03:39:36.357Z,3.53
2022-07-30T03:42:08.446Z,3.42
2022-07-30T03:44:37.599Z,3.58
2022-07-30T03:47:07.448Z,3.03
2022-07-30T03:49:41.949Z,3.25
2022-07-30T03:52:11.371Z,3.13
2022-07-30T03:54:39.181Z,2.47
2022-07-30T03:57:07.296Z,3.28
2022-07-30T03:59:44.516Z,3.40
2022-07-30T04:02:12.480Z,3.13
2022-07-30T04:04:59.364Z,2.90
2022-07-30T04:07:27.220Z,2.65
2022-07-30T04:09:54.861Z,3.03
2022-07-30T04:12:45.529Z,2.58
2022-07-30T04:16:16.700Z,2.67
2022-07-30T04:18:04.984Z,3.22
2022-07-30T04:20:40.569Z,2.80
2022-07-30T04:23:09.270Z,3.17
2022-07-30T04:25:37.073Z,3.08
2022-07-30T04:28:06.342Z,3.50
2022-07-30T04:30:35.155Z,3.33
2022-07-30T04:33:04.874Z,3.20
2022-07-30T04:35:50.801Z,3.00
2022-07-30T04:38:26.346Z,3.13
2022-07-30T04:40:53.902Z,3.22
2022-07-30T04:43:21.599Z,2.75
2022-07-30T04:45:49.224Z,3.08
2022-07-30T04:48:16.839Z,3.15
2022-07-30T04:51:17.631Z,3.58
2022-07-30T04:53:47.958Z,3.40
2022-07-30T04:56:18.868Z,3.05
2022-07-30T04:58:47.046Z,3.13
2022-07-30T05:01:37.119Z,3.50
2022-07-30T05:04:11.295Z,2.90
2022-07-30T05:06:39.908Z,2.75
2022-07-30T05:09:08.222Z,3.03
2022-07-30T05:11:35.773Z,2.85
2022-07-30T05:14:03.459Z,3.03
2022-07-30T05:16:34.197Z,2.60
2022-07-30T05:19:07.587Z,2.47
2022-07-30T05:21:36.711Z,2.65
2022-07-30T05:24:05.035Z,3.08
2022-07-30T05:26:38.932Z,2.78
2022-07-30T05:29:08.937Z,3.10
2022-07-30T05:31:56.765Z,2.83
2022-07-30T05:34:31.292Z,3.20
2022-07-30T05:36:59.522Z,2.78
2022-07-30T05:39:27.271Z,2.95
2022-07-30T05:41:55.353Z,2.95
2022-07-30T05:44:27.395Z,2.90
2022-07-30T05:46:55.934Z,2.88
2022-07-30T05:49:24.052Z,3.00
2022-07-30T05:51:53.553Z,3.00
2022-07-30T05:54:21.079Z,2.55
2022-07-30T05:57:04.630Z,2.45
2022-07-30T05:59:34.541Z,2.67
2022-07-30T06:02:11.032Z,2.67
2022-07-30T06:04:55.197Z,2.90
2022-07-30T06:07:23.821Z,2.60
2022-07-30T06:09:54.236Z,2.78
2022-07-30T06:12:22.295Z,2.60
2022-07-30T06:14:50.286Z,3.05
2022-07-30T06:17:25.140Z,3.17
2022-07-30T06:20:05.777Z,3.13
2022-07-30T06:22:47.999Z,2.53
2022-07-30T06:25:23.829Z,3.55
2022-07-30T06:27:52.402Z,2.90
2022-07-30T06:30:20.617Z,3.13
2022-07-30T06:32:58.805Z,2.80
2022-07-30T06:35:26.809Z,2.65
2022-07-30T06:38:05.770Z,2.85
2022-07-30T06:40:44.461Z,2.90
2022-07-30T06:43:23.193Z,3.55
2022-07-30T06:46:11.525Z,3.42
2022-07-30T06:48:46.259Z,3.20
2022-07-30T06:51:14.250Z,3.03
2022-07-30T06:53:42.543Z,2.95
2022-07-30T06:56:14.681Z,3.20
2022-07-30T06:58:49.826Z,2.85
2022-07-30T07:01:36.625Z,3.47
2022-07-30T07:04:05.329Z,3.03
2022-07-30T07:06:33.853Z,3.72
2022-07-30T07:09:02.254Z,3.30
2022-07-30T07:11:37.196Z,3.20
2022-07-30T07:14:09.549Z,3.50
2022-07-30T07:16:37.749Z,3.70
2022-07-30T07:20:01.632Z,3.47
2022-07-30T07:22:16.972Z,3.70
2022-07-30T07:24:45.792Z,3.92
2022-07-30T07:27:18.004Z,2.92
2022-07-30T07:30:05.512Z,3.33
2022-07-30T07:32:37.358Z,3.05
2022-07-30T07:35:06.718Z,3.25
2022-07-30T07:37:37.492Z,3.50
2022-07-30T07:40:07.898Z,3.47
2022-07-30T07:42:40.865Z,3.13
2022-07-30T07:45:09.124Z,3.83
2022-07-30T07:47:51.837Z,3.90
2022-07-30T07:50:58.287Z,3.72
2022-07-30T07:53:30.299Z,3.80
2022-07-30T07:55:59.019Z,4.70
2022-07-30T07:58:28.361Z,4.50
2022-07-30T08:01:02.578Z,4.30
2022-07-30T08:03:50.770Z,4.07
2022-07-30T08:06:44.771Z,3.58
2022-07-30T08:09:43.946Z,4.13
2022-07-30T08:12:31.445Z,3.75
2022-07-30T08:15:02.101Z,3.97
2022-07-30T08:17:48.636Z,3.95
2022-07-30T08:20:25.176Z,4.15
2022-07-30T08:22:53.295Z,4.37
2022-07-30T08:25:24.537Z,3.58
2022-07-30T08:27:54.173Z,3.55
2022-07-30T08:30:24.168Z,4.45
2022-07-30T08:32:52.307Z,4.13
2022-07-30T08:35:20.290Z,4.05
2022-07-30T08:37:48.065Z,4.10
2022-07-30T08:40:20.423Z,3.92
2022-07-30T08:42:59.514Z,4.18
2022-07-30T08:45:35.025Z,5.47
2022-07-30T08:48:35.867Z,4.65
2022-07-30T08:51:04.773Z,4.40
2022-07-30T08:53:36.285Z,4.45
2022-07-30T08:56:06.875Z,4.40
2022-07-30T08:58:35.648Z,4.22
2022-07-30T09:01:04.429Z,3.22
2022-07-30T09:03:33.783Z,3.58
2022-07-30T09:06:04.230Z,3.80
2022-07-30T09:08:32.772Z,3.40
2022-07-30T09:11:00.823Z,3.58
2022-07-30T09:13:30.464Z,3.83
2022-07-30T09:16:00.525Z,3.70
2022-07-30T09:18:38.929Z,3.55
2022-07-30T09:21:24.651Z,3.75
2022-07-30T09:24:15.630Z,3.67
2022-07-30T09:27:21.766Z,3.83
2022-07-30T09:29:59.355Z,3.83
2022-07-30T09:32:56.035Z,3.92
2022-07-30T09:35:43.646Z,3.70
2022-07-30T09:38:12.851Z,3.90
2022-07-30T09:43:32.098Z,3.60
2022-07-30T09:46:12.723Z,3.60
2022-07-30T09:48:41.641Z,4.15
2022-07-30T09:51:15.590Z,3.63
2022-07-30T09:53:59.298Z,3.70
2022-07-30T09:56:30.830Z,4.38
2022-07-30T10:01:49.849Z,3.72
2022-07-30T10:04:35.811Z,4.40
2022-07-30T10:07:25.276Z,4.05
2022-07-30T10:10:00.841Z,4.38
2022-07-30T10:12:30.214Z,4.10
2022-07-30T10:15:02.257Z,4.45
2022-07-30T10:17:34.936Z,4.18
2022-07-30T10:20:23.778Z,4.18
2022-07-30T10:23:15.863Z,3.97
2022-07-30T10:28:57.962Z,3.88
2022-07-30T10:31:47.468Z,4.38
2022-07-30T10:34:23.651Z,3.80
2022-07-30T10:37:01.837Z,3.90
2022-07-30T10:39:40.265Z,3.80
2022-07-30T10:42:34.534Z,3.30
2022-07-30T10:45:43.738Z,3.13
2022-07-30T10:48:15.137Z,3.33
2022-07-30T10:50:54.288Z,3.60
2022-07-30T10:53:49.132Z,3.75
2022-07-30T10:56:19.201Z,3.40
2022-07-30T10:59:10.766Z,3.45
2022-07-30T11:01:53.389Z,3.50
2022-07-30T11:04:29.609Z,2.85
2022-07-30T11:07:23.561Z,3.08
2022-07-30T11:10:05.898Z,3.45
2022-07-30T11:12:44.717Z,2.95
2022-07-30T11:15:19.338Z,2.90
2022-07-30T11:18:12.835Z,3.50
2022-07-30T11:20:48.270Z,3.08
2022-07-30T11:23:26.252Z,3.10
2022-07-30T11:25:54.973Z,2.95
2022-07-30T11:28:37.003Z,3.10
2022-07-30T11:31:36.997Z,2.83
2022-07-30T11:34:19.663Z,3.25
2022-07-30T11:37:18.246Z,3.00
2022-07-30T11:39:55.849Z,2.92
2022-07-30T11:42:29.592Z,2.75
2022-07-30T11:45:16.354Z,3.53
2022-07-30T11:47:52.766Z,3.08
2022-07-30T11:50:30.805Z,3.13
2022-07-30T11:53:01.969Z,3.42
2022-07-30T11:55:39.286Z,3.53
2022-07-30T11:58:14.807Z,3.38
2022-07-30T12:00:48.217Z,3.63
2022-07-30T12:03:18.671Z,2.95
2022-07-30T12:05:52.583Z,2.92
2022-07-30T12:08:33.466Z,3.72
2022-07-30T12:11:04.808Z,3.35
2022-07-30T12:13:45.048Z,2.72
2022-07-30T12:16:17.850Z,3.72
2022-07-30T12:18:47.024Z,3.60
2022-07-30T12:21:19.042Z,3.30
2022-07-30T12:24:01.764Z,3.15
2022-07-30T12:26:31.562Z,3.30
2022-07-30T12:29:07.609Z,3.58
2022-07-30T12:31:38.501Z,3.10
2022-07-30T12:34:24.662Z,3.40
2022-07-30T12:36:53.244Z,3.55
2022-07-30T12:39:27.213Z,3.10
2022-07-30T12:41:56.438Z,3.50
2022-07-30T12:44:46.746Z,3.50
2022-07-30T12:47:28.113Z,3.17
2022-07-30T12:49:58.354Z,3.45
2022-07-30T12:52:30.841Z,3.30
2022-07-30T12:55:02.812Z,3.38
2022-07-30T12:58:07.012Z,2.83
2022-07-30T13:00:52.524Z,2.78
2022-07-30T13:03:27.069Z,2.72
2022-07-30T13:05:56.465Z,2.50
2022-07-30T13:08:56.310Z,2.60
2022-07-30T13:11:38.793Z,2.80
2022-07-30T13:14:06.813Z,2.85
2022-07-30T13:16:35.810Z,3.17
2022-07-30T13:19:14.167Z,3.05
2022-07-30T13:21:49.735Z,2.47
2022-07-30T13:24:18.687Z,2.88
2022-07-30T13:26:47.219Z,2.95
2022-07-30T13:29:15.288Z,2.38
2022-07-30T13:31:43.671Z,2.78
2022-07-30T13:34:12.558Z,2.67
2022-07-30T13:36:40.599Z,2.53
2022-07-30T13:39:08.828Z,2.45
2022-07-30T13:41:36.917Z,2.60
2022-07-30T13:44:05.888Z,2.55
2022-07-30T13:46:33.814Z,2.55
2022-07-30T13:49:01.831Z,2.45
2022-07-30T13:51:29.760Z,2.22
2022-07-30T13:53:57.668Z,2.65
2022-07-30T13:56:25.631Z,2.53
2022-07-30T13:58:53.835Z,1.98
2022-07-30T14:01:21.848Z,2.40
2022-07-30T14:03:50.916Z,2.33
2022-07-30T14:06:19.957Z,1.77
2022-07-30T14:08:48.084Z,2.00
2022-07-30T14:11:17.161Z,2.28
2022-07-30T14:13:45.956Z,2.40
2022-07-30T14:16:42.836Z,2.15
2022-07-30T14:19:05.557Z,2.40
2022-07-30T14:21:33.375Z,1.70
2022-07-30T14:24:01.238Z,2.10
2022-07-30T14:26:30.272Z,1.90
2022-07-30T14:29:05.510Z,2.00
2022-07-30T14:31:33.944Z,1.80
2022-07-30T14:34:02.385Z,1.98
2022-07-30T14:36:33.781Z,1.80
2022-07-30T14:39:04.252Z,1.85
2022-07-30T14:41:32.464Z,1.77
2022-07-30T14:44:00.610Z,1.73
2022-07-30T14:46:28.883Z,1.80
2022-07-30T14:48:56.882Z,1.52
2022-07-30T14:51:27.147Z,1.65
2022-07-30T14:53:59.442Z,1.70
2022-07-30T14:56:27.386Z,1.52
2022-07-30T14:58:55.299Z,1.70
2022-07-30T15:01:23.287Z,1.65
2022-07-30T15:03:52.054Z,1.77
2022-07-30T15:06:20.022Z,1.40
2022-07-30T15:08:48.850Z,1.35
2022-07-30T15:11:16.737Z,1.88
2022-07-30T15:13:50.607Z,1.50
2022-07-30T15:16:19.326Z,1.63
2022-07-30T15:18:47.711Z,1.52
2022-07-30T15:21:15.926Z,1.70
2022-07-30T15:23:43.779Z,1.73
2022-07-30T15:26:11.776Z,2.30
2022-07-30T15:28:39.567Z,1.83
2022-07-30T15:31:07.600Z,1.48
2022-07-30T15:33:37.341Z,1.75
2022-07-30T15:36:05.273Z,1.77
2022-07-30T15:38:33.827Z,1.63
2022-07-30T15:41:02.003Z,1.75
2022-07-30T15:43:30.053Z,1.58
2022-07-30T15:45:58.197Z,1.30
2022-07-30T15:48:27.915Z,1.35
2022-07-30T15:51:14.100Z,1.52
2022-07-30T15:53:42.087Z,1.48
2022-07-30T15:56:10.857Z,1.60
2022-07-30T15:58:43.225Z,1.40
2022-07-30T16:01:11.558Z,1.40
2022-07-30T16:03:39.615Z,1.67
2022-07-30T16:06:07.677Z,1.35
2022-07-30T16:08:35.343Z,1.27
2022-07-30T16:11:04.667Z,1.40
2022-07-30T16:13:32.841Z,1.60
2022-07-30T16:16:00.953Z,1.48
2022-07-30T16:18:28.855Z,1.40
2022-07-30T16:20:58.918Z,1.50
2022-07-30T16:23:36.373Z,1.50
2022-07-30T16:26:05.359Z,1.70
2022-07-30T16:28:33.558Z,1.70
2022-07-30T16:31:01.414Z,1.85
2022-07-30T16:33:29.327Z,1.52
2022-07-30T16:35:57.252Z,2.10
2022-07-30T16:38:26.454Z,2.55
2022-07-30T16:40:54.424Z,2.25
2022-07-30T16:43:22.322Z,2.50
2022-07-30T16:45:50.399Z,2.13
2022-07-30T16:48:18.403Z,1.80
2022-07-30T16:50:46.775Z,1.90
2022-07-30T16:53:14.901Z,1.77
2022-07-30T16:55:47.910Z,1.73
2022-07-30T16:58:15.739Z,1.73
2022-07-30T17:00:43.777Z,2.40
2022-07-30T17:03:16.917Z,1.88
2022-07-30T17:05:48.421Z,2.03
2022-07-30T17:08:17.686Z,2.22
2022-07-30T17:10:46.500Z,2.30
2022-07-30T17:13:16.045Z,2.10
2022-07-30T17:15:44.056Z,2.22
2022-07-30T17:18:15.137Z,2.20
2022-07-30T17:20:43.371Z,2.20
2022-07-30T17:23:11.501Z,2.10
2022-07-30T17:25:39.537Z,2.08
2022-07-30T17:28:07.684Z,2.20
2022-07-30T17:30:35.792Z,2.15
2022-07-30T17:33:06.520Z,2.30
2022-07-30T17:35:34.894Z,2.20
2022-07-30T17:38:02.719Z,2.42
2022-07-30T17:40:31.867Z,2.60
2022-07-30T17:43:04.320Z,2.03
2022-07-30T17:45:37.334Z,2.20
2022-07-30T17:48:06.536Z,2.25
2022-07-30T17:50:34.802Z,2.30
2022-07-30T17:53:06.087Z,2.30
2022-07-30T17:55:37.247Z,2.13
2022-07-30T17:58:05.971Z,2.28
2022-07-30T18:00:35.516Z,1.92
2022-07-30T18:03:03.854Z,2.28
2022-07-30T18:05:31.964Z,2.30
2022-07-30T18:07:59.962Z,2.05
2022-07-30T18:10:27.899Z,2.15
2022-07-30T18:12:56.509Z,2.25
2022-07-30T18:15:25.718Z,2.22
2022-07-30T18:17:53.761Z,2.35
2022-07-30T18:20:21.816Z,2.40
2022-07-30T18:22:51.786Z,2.40
2022-07-30T18:25:19.933Z,2.00
2022-07-30T18:27:48.323Z,2.50
2022-07-30T18:30:16.410Z,2.20
2022-07-30T18:32:45.283Z,2.20
2022-07-30T18:35:14.885Z,2.58
2022-07-30T18:37:44.094Z,2.20
2022-07-30T18:40:19.518Z,2.50
2022-07-30T18:42:51.488Z,2.08
2022-07-30T18:45:19.762Z,2.22
2022-07-30T18:47:49.008Z,2.10
2022-07-30T18:50:17.381Z,2.40
2022-07-30T18:52:45.690Z,1.90
2022-07-30T18:55:14.880Z,2.00
2022-07-30T18:57:42.961Z,2.45
2022-07-30T19:00:30.961Z,2.58
2022-07-30T19:03:01.513Z,2.10
2022-07-30T19:05:29.907Z,2.30
2022-07-30T19:07:58.963Z,2.42
2022-07-30T19:10:27.610Z,2.90
2022-07-30T19:12:56.268Z,2.17
2022-07-30T19:15:24.624Z,2.25
2022-07-30T19:17:53.195Z,1.98
2022-07-30T19:20:21.317Z,2.20
2022-07-30T19:22:49.533Z,2.38
2022-07-30T19:25:21.265Z,2.33
2022-07-30T19:27:49.288Z,2.47
2022-07-30T19:30:17.193Z,2.22
2022-07-30T19:32:46.195Z,2.35
2022-07-30T19:35:14.648Z,2.65
2022-07-30T19:37:42.782Z,2.60
2022-07-30T19:40:12.699Z,2.45
2022-07-30T19:42:41.480Z,2.30
2022-07-30T19:45:13.187Z,2.30
2022-07-30T19:47:42.339Z,2.80
2022-07-30T19:50:11.869Z,2.63
2022-07-30T19:52:40.625Z,2.58
2022-07-30T19:55:30.767Z,2.70
2022-07-30T19:58:19.469Z,2.38
2022-07-30T20:00:49.881Z,2.45
2022-07-30T20:03:26.282Z,2.17
2022-07-30T20:06:00.511Z,2.50
2022-07-30T20:08:28.978Z,2.13
2022-07-30T20:10:57.539Z,2.60
2022-07-30T20:13:43.947Z,2.50
2022-07-30T20:16:18.877Z,2.33
2022-07-30T20:18:48.191Z,2.83
2022-07-30T20:21:17.742Z,2.42
2022-07-30T20:23:46.487Z,2.38
2022-07-30T20:26:16.948Z,2.88
2022-07-30T20:28:53.438Z,2.95
2022-07-30T20:31:21.849Z,3.10
2022-07-30T20:33:50.846Z,2.65
2022-07-30T20:36:19.472Z,3.13
2022-07-30T20:38:50.099Z,3.55
2022-07-30T20:41:19.085Z,3.03
2022-07-30T20:43:51.954Z,3.03
2022-07-30T20:46:23.394Z,3.25
2022-07-30T20:48:53.042Z,2.95
2022-07-30T20:51:21.519Z,2.58
2022-07-30T20:54:01.803Z,2.60
2022-07-30T20:56:31.569Z,2.80
2022-07-30T20:58:59.570Z,2.95
2022-07-30T21:01:30.754Z,2.65
2022-07-30T21:03:58.983Z,2.70
2022-07-30T21:06:26.867Z,2.67
2022-07-30T21:08:56.586Z,2.72
2022-07-30T21:11:27.631Z,2.72
2022-07-30T21:13:56.083Z,2.63
2022-07-30T21:16:26.987Z,2.88
2022-07-30T21:18:58.557Z,2.83
2022-07-30T21:21:38.216Z,2.47
2022-07-30T21:24:19.295Z,3.35
2022-07-30T21:27:06.856Z,2.63
2022-07-30T21:29:35.613Z,3.25
2022-07-30T21:32:05.608Z,2.75
2022-07-30T21:34:40.371Z,2.70
2022-07-30T21:37:10.191Z,2.30
2022-07-30T21:39:41.906Z,3.20
2022-07-30T21:42:10.320Z,2.75
2022-07-30T21:44:39.068Z,2.88
2022-07-30T21:47:10.434Z,2.85
2022-07-30T21:49:39.787Z,2.65
2022-07-30T21:52:09.569Z,2.53
2022-07-30T21:54:45.144Z,2.90
2022-07-30T21:57:23.197Z,3.00
2022-07-30T21:59:55.687Z,2.72
2022-07-30T22:02:24.477Z,2.75
2022-07-30T22:04:54.087Z,3.08
2022-07-30T22:07:22.499Z,3.35
2022-07-30T22:09:50.694Z,2.90
2022-07-30T22:12:19.119Z,2.50
2022-07-30T22:14:49.690Z,2.67
2022-07-30T22:17:37.376Z,2.97
2022-07-30T22:20:24.157Z,2.85
2022-07-30T22:22:55.988Z,3.22
2022-07-30T22:25:24.384Z,3.45
2022-07-30T22:28:09.753Z,3.03
2022-07-30T22:30:38.056Z,3.30
2022-07-30T22:33:20.043Z,3.38
2022-07-30T22:35:49.698Z,3.13
2022-07-30T22:38:19.698Z,2.75
2022-07-30T22:40:47.905Z,2.83
2022-07-30T22:43:17.713Z,2.88
2022-07-30T22:45:49.487Z,3.10
2022-07-30T22:48:19.983Z,3.10
2022-07-30T22:50:53.547Z,3.60
2022-07-30T22:54:11.240Z,3.10
2022-07-30T22:56:15.565Z,3.13
2022-07-30T22:58:48.788Z,3.47
2022-07-30T23:01:17.631Z,3.20
2022-07-30T23:03:45.769Z,3.22
2022-07-30T23:06:16.450Z,2.90
2022-07-30T23:08:45.233Z,3.33
2022-07-30T23:11:13.418Z,3.58
2022-07-30T23:13:42.086Z,3.28
2022-07-30T23:16:10.269Z,3.33
2022-07-30T23:18:38.423Z,3.83
2022-07-30T23:21:06.347Z,3.83
2022-07-30T23:23:35.874Z,3.65
2022-07-30T23:26:04.948Z,3.22
2022-07-30T23:28:32.823Z,3.40
2022-07-30T23:31:01.314Z,3.17
2022-07-30T23:33:29.685Z,3.65
2022-07-30T23:35:58.024Z,4.28
2022-07-30T23:38:26.284Z,3.28
2022-07-30T23:41:01.558Z,3.90
2022-07-30T23:43:38.627Z,3.28
2022-07-30T23:46:09.735Z,2.97
2022-07-30T23:48:39.406Z,3.30
2022-07-30T23:51:07.378Z,3.45
2022-07-30T23:53:35.359Z,3.75
2022-07-30T23:56:03.773Z,4.32
2022-07-30T23:58:31.790Z,3.88
